sensor_id;sensor_type;location;lat;lon;timestamp;pressure;altitude;pressure_sealevel;temperature;humidity
8140;BME280;4111;50.972;7.072;2023-04-01T00:01:05;98996.28;;;11.51;87.52
8140;BME280;4111;50.972;7.072;2023-04-01T00:03:32;98997.41;;;11.50;87.40
8140;BME280;4111;50.972;7.072;2023-04-01T00:06:00;98995.94;;;11.58;87.01
8140;BME280;4111;50.972;7.072;2023-04-01T00:08:27;98997.03;;;11.57;86.85
8140;BME280;4111;50.972;7.072;2023-04-01T00:10:54;98997.31;;;11.55;86.69
8140;BME280;4111;50.972;7.072;2023-04-01T00:13:21;98999.16;;;11.60;86.43
8140;BME280;4111;50.972;7.072;2023-04-01T00:15:48;99005.41;;;11.60;86.09
8140;BME280;4111;50.972;7.072;2023-04-01T00:18:15;99003.19;;;11.62;86.84
8140;BME280;4111;50.972;7.072;2023-04-01T00:20:46;99002.69;;;11.60;86.48
8140;BME280;4111;50.972;7.072;2023-04-01T00:23:14;98995.72;;;11.54;86.31
8140;BME280;4111;50.972;7.072;2023-04-01T00:25:41;98999.75;;;11.57;86.16
8140;BME280;4111;50.972;7.072;2023-04-01T00:28:07;98996.69;;;11.63;85.87
8140;BME280;4111;50.972;7.072;2023-04-01T00:30:35;98986.31;;;11.65;85.74
8140;BME280;4111;50.972;7.072;2023-04-01T00:33:03;98988.53;;;11.63;85.38
8140;BME280;4111;50.972;7.072;2023-04-01T00:35:29;98981.91;;;11.69;85.45
8140;BME280;4111;50.972;7.072;2023-04-01T00:37:56;98990.34;;;11.68;85.43
8140;BME280;4111;50.972;7.072;2023-04-01T00:40:33;98985.41;;;11.70;85.27
8140;BME280;4111;50.972;7.072;2023-04-01T00:43:00;98971.59;;;11.66;85.29
8140;BME280;4111;50.972;7.072;2023-04-01T00:45:33;98984.59;;;11.69;84.86
8140;BME280;4111;50.972;7.072;2023-04-01T00:48:13;98981.09;;;11.69;84.92
8140;BME280;4111;50.972;7.072;2023-04-01T00:50:45;98986.94;;;11.76;84.64
8140;BME280;4111;50.972;7.072;2023-04-01T00:53:12;98980.69;;;11.76;84.71
8140;BME280;4111;50.972;7.072;2023-04-01T00:55:43;98976.69;;;11.73;85.06
8140;BME280;4111;50.972;7.072;2023-04-01T00:58:15;98989.59;;;11.62;85.43
8140;BME280;4111;50.972;7.072;2023-04-01T01:00:44;98988.53;;;11.63;85.81
8140;BME280;4111;50.972;7.072;2023-04-01T01:03:12;98984.69;;;11.64;85.64
8140;BME280;4111;50.972;7.072;2023-04-01T01:09:01;98972.78;;;11.60;85.84
8140;BME280;4111;50.972;7.072;2023-04-01T01:11:31;98973.41;;;11.57;85.99
8140;BME280;4111;50.972;7.072;2023-04-01T01:17:23;98970.06;;;11.60;85.76
8140;BME280;4111;50.972;7.072;2023-04-01T01:26:07;98966.16;;;11.66;85.33
8140;BME280;4111;50.972;7.072;2023-04-01T01:29:00;98970.00;;;11.65;85.01
8140;BME280;4111;50.972;7.072;2023-04-01T01:31:42;98967.78;;;11.67;85.11
8140;BME280;4111;50.972;7.072;2023-04-01T01:37:01;98970.22;;;11.69;85.07
8140;BME280;4111;50.972;7.072;2023-04-01T01:39:31;98976.47;;;11.69;84.96
8140;BME280;4111;50.972;7.072;2023-04-01T01:42:03;98973.22;;;11.67;84.85
8140;BME280;4111;50.972;7.072;2023-04-01T01:44:31;98983.09;;;11.63;85.19
8140;BME280;4111;50.972;7.072;2023-04-01T01:46:59;98972.78;;;11.60;85.51
8140;BME280;4111;50.972;7.072;2023-04-01T01:49:27;98966.56;;;11.60;86.13
8140;BME280;4111;50.972;7.072;2023-04-01T01:51:56;98971.78;;;11.56;86.43
8140;BME280;4111;50.972;7.072;2023-04-01T01:54:23;98966.34;;;11.56;86.81
8140;BME280;4111;50.972;7.072;2023-04-01T01:56:54;98965.91;;;11.49;87.49
8140;BME280;4111;50.972;7.072;2023-04-01T01:59:23;98969.50;;;11.44;87.92
8140;BME280;4111;50.972;7.072;2023-04-01T02:01:52;98958.41;;;11.41;88.17
8140;BME280;4111;50.972;7.072;2023-04-01T02:04:21;98978.56;;;11.40;88.58
8140;BME280;4111;50.972;7.072;2023-04-01T02:07:02;98971.72;;;11.42;89.03
8140;BME280;4111;50.972;7.072;2023-04-01T02:09:30;98969.06;;;11.37;89.22
8140;BME280;4111;50.972;7.072;2023-04-01T02:12:00;98975.09;;;11.34;89.68
8140;BME280;4111;50.972;7.072;2023-04-01T02:14:40;98975.03;;;11.20;90.10
8140;BME280;4111;50.972;7.072;2023-04-01T02:17:12;98970.19;;;11.17;90.89
8140;BME280;4111;50.972;7.072;2023-04-01T02:20:02;98984.78;;;11.21;91.37
8140;BME280;4111;50.972;7.072;2023-04-01T02:22:35;98981.03;;;11.17;91.32
8140;BME280;4111;50.972;7.072;2023-04-01T02:25:08;98988.16;;;11.13;91.77
8140;BME280;4111;50.972;7.072;2023-04-01T02:27:36;98979.59;;;11.06;92.13
8140;BME280;4111;50.972;7.072;2023-04-01T02:30:03;98979.59;;;11.06;92.68
8140;BME280;4111;50.972;7.072;2023-04-01T02:32:31;98975.03;;;11.01;93.01
8140;BME280;4111;50.972;7.072;2023-04-01T02:34:59;98975.09;;;10.96;93.79
8140;BME280;4111;50.972;7.072;2023-04-01T02:37:29;98971.41;;;10.87;94.36
8140;BME280;4111;50.972;7.072;2023-04-01T02:40:03;98973.84;;;10.88;94.89
8140;BME280;4111;50.972;7.072;2023-04-01T02:42:29;98973.38;;;10.81;95.64
8140;BME280;4111;50.972;7.072;2023-04-01T02:44:56;98965.09;;;10.73;96.11
8140;BME280;4111;50.972;7.072;2023-04-01T02:47:22;98970.13;;;10.60;97.11
8140;BME280;4111;50.972;7.072;2023-04-01T02:49:49;98971.69;;;10.66;97.53
8140;BME280;4111;50.972;7.072;2023-04-01T02:52:15;98968.75;;;10.63;97.98
8140;BME280;4111;50.972;7.072;2023-04-01T02:54:41;98964.63;;;10.65;99.09
8140;BME280;4111;50.972;7.072;2023-04-01T02:57:08;98961.13;;;10.65;99.34
8140;BME280;4111;50.972;7.072;2023-04-01T02:59:34;98961.03;;;10.70;99.22
8140;BME280;4111;50.972;7.072;2023-04-01T03:02:01;98963.22;;;10.68;99.22
8140;BME280;4111;50.972;7.072;2023-04-01T03:04:27;98951.63;;;10.62;98.96
8140;BME280;4111;50.972;7.072;2023-04-01T03:06:53;98959.25;;;10.60;99.36
8140;BME280;4111;50.972;7.072;2023-04-01T03:09:21;98958.47;;;10.60;99.37
8140;BME280;4111;50.972;7.072;2023-04-01T03:11:47;98959.34;;;10.55;99.45
8140;BME280;4111;50.972;7.072;2023-04-01T03:14:14;98960.72;;;10.52;99.57
8140;BME280;4111;50.972;7.072;2023-04-01T03:16:40;98958.03;;;10.52;99.77
8140;BME280;4111;50.972;7.072;2023-04-01T03:19:07;98963.66;;;10.56;99.75
8140;BME280;4111;50.972;7.072;2023-04-01T03:21:33;98967.47;;;10.55;100.00
8140;BME280;4111;50.972;7.072;2023-04-01T03:23:59;98975.34;;;10.57;99.97
8140;BME280;4111;50.972;7.072;2023-04-01T03:26:26;98967.06;;;10.67;99.87
8140;BME280;4111;50.972;7.072;2023-04-01T03:28:55;98959.78;;;10.62;99.77
8140;BME280;4111;50.972;7.072;2023-04-01T03:31:22;98969.25;;;10.65;99.79
8140;BME280;4111;50.972;7.072;2023-04-01T03:33:49;98969.91;;;10.57;99.70
8140;BME280;4111;50.972;7.072;2023-04-01T03:36:16;98969.97;;;10.51;100.00
8140;BME280;4111;50.972;7.072;2023-04-01T03:38:42;98978.97;;;10.47;100.00
8140;BME280;4111;50.972;7.072;2023-04-01T03:41:13;98975.44;;;10.46;100.00
8140;BME280;4111;50.972;7.072;2023-04-01T03:43:41;98975.38;;;10.51;100.00
8140;BME280;4111;50.972;7.072;2023-04-01T03:46:08;98986.75;;;10.54;100.00
8140;BME280;4111;50.972;7.072;2023-04-01T03:48:34;98981.03;;;10.55;100.00
8140;BME280;4111;50.972;7.072;2023-04-01T03:51:01;98985.69;;;10.55;100.00
8140;BME280;4111;50.972;7.072;2023-04-01T03:53:27;98984.09;;;10.48;100.00
8140;BME280;4111;50.972;7.072;2023-04-01T03:55:54;98985.19;;;10.47;100.00
8140;BME280;4111;50.972;7.072;2023-04-01T03:58:20;98982.72;;;10.51;100.00
8140;BME280;4111;50.972;7.072;2023-04-01T04:00:47;98976.66;;;10.59;100.00
8140;BME280;4111;50.972;7.072;2023-04-01T04:03:13;98980.41;;;10.63;100.00
8140;BME280;4111;50.972;7.072;2023-04-01T04:05:48;98980.69;;;10.62;100.00
8140;BME280;4111;50.972;7.072;2023-04-01T04:08:14;98981.94;;;10.69;100.00
8140;BME280;4111;50.972;7.072;2023-04-01T04:10:41;98980.41;;;10.63;100.00
8140;BME280;4111;50.972;7.072;2023-04-01T04:13:07;98983.91;;;10.64;100.00
8140;BME280;4111;50.972;7.072;2023-04-01T04:15:33;98986.34;;;10.65;100.00
8140;BME280;4111;50.972;7.072;2023-04-01T04:18:00;98982.47;;;10.71;100.00
8140;BME280;4111;50.972;7.072;2023-04-01T04:20:27;98988.41;;;10.74;100.00
8140;BME280;4111;50.972;7.072;2023-04-01T04:22:53;98987.00;;;10.76;100.00
8140;BME280;4111;50.972;7.072;2023-04-01T04:25:19;98987.56;;;10.78;100.00
8140;BME280;4111;50.972;7.072;2023-04-01T04:27:46;98988.06;;;10.80;100.00
8140;BME280;4111;50.972;7.072;2023-04-01T04:30:13;98987.00;;;10.76;100.00
8140;BME280;4111;50.972;7.072;2023-04-01T04:32:39;98990.56;;;10.77;99.97
8140;BME280;4111;50.972;7.072;2023-04-01T04:35:08;98982.13;;;10.78;99.91
8140;BME280;4111;50.972;7.072;2023-04-01T04:37:34;98985.94;;;10.77;99.78
8140;BME280;4111;50.972;7.072;2023-04-01T04:40:01;98986.22;;;10.76;99.90
8140;BME280;4111;50.972;7.072;2023-04-01T04:42:27;98984.38;;;10.71;99.83
8140;BME280;4111;50.972;7.072;2023-04-01T04:44:53;98987.63;;;10.73;99.75
8140;BME280;4111;50.972;7.072;2023-04-01T04:47:20;98975.63;;;10.74;100.00
8140;BME280;4111;50.972;7.072;2023-04-01T04:49:46;98988.41;;;10.74;100.00
8140;BME280;4111;50.972;7.072;2023-04-01T04:52:13;98983.50;;;10.76;99.43
8140;BME280;4111;50.972;7.072;2023-04-01T04:54:39;98986.22;;;10.76;100.00
8140;BME280;4111;50.972;7.072;2023-04-01T04:57:06;98996.28;;;10.75;100.00
8140;BME280;4111;50.972;7.072;2023-04-01T04:59:32;98999.34;;;10.68;100.00
8140;BME280;4111;50.972;7.072;2023-04-01T05:01:59;99003.38;;;10.71;100.00
8140;BME280;4111;50.972;7.072;2023-04-01T05:04:25;99012.91;;;10.68;100.00
8140;BME280;4111;50.972;7.072;2023-04-01T05:06:52;99001.75;;;10.70;100.00
8140;BME280;4111;50.972;7.072;2023-04-01T05:09:18;99005.28;;;10.70;100.00
8140;BME280;4111;50.972;7.072;2023-04-01T05:11:45;99004.53;;;10.65;100.00
8140;BME280;4111;50.972;7.072;2023-04-01T05:14:13;99010.03;;;10.60;100.00
8140;BME280;4111;50.972;7.072;2023-04-01T05:16:39;99011.06;;;10.64;100.00
8140;BME280;4111;50.972;7.072;2023-04-01T05:19:06;99012.09;;;10.68;100.00
8140;BME280;4111;50.972;7.072;2023-04-01T05:21:32;99013.72;;;10.69;100.00
8140;BME280;4111;50.972;7.072;2023-04-01T05:23:59;99019.16;;;10.69;100.00
8140;BME280;4111;50.972;7.072;2023-04-01T05:26:25;99018.56;;;10.72;100.00
8140;BME280;4111;50.972;7.072;2023-04-01T05:28:51;99022.03;;;10.78;100.00
8140;BME280;4111;50.972;7.072;2023-04-01T05:31:18;99020.41;;;10.77;100.00
8140;BME280;4111;50.972;7.072;2023-04-01T05:33:44;99019.06;;;10.74;100.00
8140;BME280;4111;50.972;7.072;2023-04-01T05:36:14;99029.09;;;10.79;100.00
8140;BME280;4111;50.972;7.072;2023-04-01T05:38:41;99027.28;;;10.69;100.00
8140;BME280;4111;50.972;7.072;2023-04-01T05:41:09;99027.81;;;10.71;100.00
8140;BME280;4111;50.972;7.072;2023-04-01T05:43:36;99035.66;;;10.73;100.00
8140;BME280;4111;50.972;7.072;2023-04-01T05:46:03;99030.53;;;10.71;100.00
8140;BME280;4111;50.972;7.072;2023-04-01T05:48:29;99032.72;;;10.69;100.00
8140;BME280;4111;50.972;7.072;2023-04-01T05:50:56;99031.91;;;10.68;100.00
8140;BME280;4111;50.972;7.072;2023-04-01T05:53:22;99034.13;;;10.66;100.00
8140;BME280;4111;50.972;7.072;2023-04-01T05:55:48;99037.63;;;10.67;100.00
8140;BME280;4111;50.972;7.072;2023-04-01T05:58:15;99039.06;;;10.59;100.00
8140;BME280;4111;50.972;7.072;2023-04-01T06:00:41;99043.09;;;10.62;100.00
8140;BME280;4111;50.972;7.072;2023-04-01T06:03:08;99042.66;;;10.55;100.00
8140;BME280;4111;50.972;7.072;2023-04-01T06:05:42;99034.72;;;10.58;100.00
8140;BME280;4111;50.972;7.072;2023-04-01T06:08:12;99045.91;;;10.57;100.00
8140;BME280;4111;50.972;7.072;2023-04-01T06:11:35;99045.81;;;10.62;100.00
8140;BME280;4111;50.972;7.072;2023-04-01T06:13:54;99050.69;;;10.65;100.00
8140;BME280;4111;50.972;7.072;2023-04-01T06:27:44;99051.19;;;10.67;100.00
8140;BME280;4111;50.972;7.072;2023-04-01T06:36:23;99061.19;;;10.71;100.00
8140;BME280;4111;50.972;7.072;2023-04-01T06:44:51;99063.50;;;10.83;100.00
8140;BME280;4111;50.972;7.072;2023-04-01T06:52:45;99068.41;;;10.81;100.00
8140;BME280;4111;50.972;7.072;2023-04-01T06:55:32;99067.88;;;10.79;100.00
8140;BME280;4111;50.972;7.072;2023-04-01T06:58:04;99073.88;;;10.76;100.00
8140;BME280;4111;50.972;7.072;2023-04-01T07:00:35;99084.19;;;10.79;100.00
8140;BME280;4111;50.972;7.072;2023-04-01T07:03:15;99073.31;;;10.79;100.00
8140;BME280;4111;50.972;7.072;2023-04-01T07:05:44;99072.97;;;10.86;100.00
8140;BME280;4111;50.972;7.072;2023-04-01T07:08:19;99082.69;;;10.92;100.00
8140;BME280;4111;50.972;7.072;2023-04-01T07:11:06;99080.50;;;10.94;100.00
8140;BME280;4111;50.972;7.072;2023-04-01T07:13:47;99089.34;;;11.00;100.00
8140;BME280;4111;50.972;7.072;2023-04-01T07:16:26;99087.75;;;10.99;100.00
8140;BME280;4111;50.972;7.072;2023-04-01T07:19:16;99085.00;;;11.04;100.00
8140;BME280;4111;50.972;7.072;2023-04-01T07:21:48;99083.22;;;10.94;100.00
8140;BME280;4111;50.972;7.072;2023-04-01T07:24:24;99089.25;;;10.86;100.00
8140;BME280;4111;50.972;7.072;2023-04-01T07:26:56;99087.88;;;10.88;100.00
8140;BME280;4111;50.972;7.072;2023-04-01T07:29:24;99099.91;;;10.82;100.00
8140;BME280;4111;50.972;7.072;2023-04-01T07:37:57;99111.31;;;10.79;100.00
8140;BME280;4111;50.972;7.072;2023-04-01T07:48:39;99114.00;;;10.84;100.00
8140;BME280;4111;50.972;7.072;2023-04-01T07:54:22;99121.50;;;10.93;100.00
8140;BME280;4111;50.972;7.072;2023-04-01T07:57:15;99118.25;;;10.90;100.00
8140;BME280;4111;50.972;7.072;2023-04-01T08:00:00;99119.88;;;10.91;100.00
8140;BME280;4111;50.972;7.072;2023-04-01T08:02:49;99120.47;;;10.88;100.00
8140;BME280;4111;50.972;7.072;2023-04-01T08:05:35;99126.97;;;10.87;100.00
8140;BME280;4111;50.972;7.072;2023-04-01T08:08:27;99127.44;;;10.95;100.00
8140;BME280;4111;50.972;7.072;2023-04-01T08:19:52;99149.22;;;10.89;100.00
8140;BME280;4111;50.972;7.072;2023-04-01T08:25:04;99154.00;;;10.98;100.00
8140;BME280;4111;50.972;7.072;2023-04-01T08:27:37;99168.13;;;11.00;100.00
8140;BME280;4111;50.972;7.072;2023-04-01T08:30:15;99161.88;;;10.99;100.00
8140;BME280;4111;50.972;7.072;2023-04-01T08:32:48;99161.59;;;11.01;100.00
8140;BME280;4111;50.972;7.072;2023-04-01T08:37:47;99171.19;;;10.93;100.00
8140;BME280;4111;50.972;7.072;2023-04-01T08:46:51;99177.34;;;11.04;100.00
8140;BME280;4111;50.972;7.072;2023-04-01T08:52:29;99175.81;;;10.93;100.00
8140;BME280;4111;50.972;7.072;2023-04-01T08:55:12;99187.72;;;10.97;100.00
8140;BME280;4111;50.972;7.072;2023-04-01T09:00:38;99189.31;;;10.98;100.00
8140;BME280;4111;50.972;7.072;2023-04-01T09:11:07;99188.66;;;11.11;100.00
8140;BME280;4111;50.972;7.072;2023-04-01T09:17:00;99205.00;;;11.06;100.00
8140;BME280;4111;50.972;7.072;2023-04-01T09:20:06;99205.53;;;11.08;100.00
8140;BME280;4111;50.972;7.072;2023-04-01T09:25:58;99219.31;;;11.11;100.00
8140;BME280;4111;50.972;7.072;2023-04-01T09:29:04;99227.84;;;11.00;100.00
8140;BME280;4111;50.972;7.072;2023-04-01T09:31:40;99217.00;;;11.00;100.00
8140;BME280;4111;50.972;7.072;2023-04-01T09:34:52;99221.63;;;10.99;100.00
8140;BME280;4111;50.972;7.072;2023-04-01T09:46:14;99234.97;;;10.96;100.00
8140;BME280;4111;50.972;7.072;2023-04-01T09:48:47;99241.75;;;10.98;100.00
8140;BME280;4111;50.972;7.072;2023-04-01T09:51:48;99244.16;;;11.00;100.00
8140;BME280;4111;50.972;7.072;2023-04-01T09:54:48;99251.22;;;11.01;100.00
8140;BME280;4111;50.972;7.072;2023-04-01T10:09:21;99262.03;;;11.06;100.00
8140;BME280;4111;50.972;7.072;2023-04-01T10:20:55;99280.19;;;11.10;100.00
8140;BME280;4111;50.972;7.072;2023-04-01T10:29:56;99285.88;;;11.14;100.00
8140;BME280;4111;50.972;7.072;2023-04-01T10:38:55;99292.88;;;11.20;100.00
8140;BME280;4111;50.972;7.072;2023-04-01T10:42:03;99294.47;;;11.21;100.00
8140;BME280;4111;50.972;7.072;2023-04-01T10:59:19;99299.66;;;11.47;100.00
8140;BME280;4111;50.972;7.072;2023-04-01T11:05:26;99298.06;;;11.46;100.00
8140;BME280;4111;50.972;7.072;2023-04-01T11:16:24;99309.84;;;11.60;100.00
8140;BME280;4111;50.972;7.072;2023-04-01T11:22:15;99306.06;;;11.61;100.00
8140;BME280;4111;50.972;7.072;2023-04-01T11:36:09;99317.97;;;11.65;100.00
8140;BME280;4111;50.972;7.072;2023-04-01T11:40:58;99326.06;;;11.70;100.00
8140;BME280;4111;50.972;7.072;2023-04-01T11:43:46;99341.81;;;11.74;100.00
8140;BME280;4111;50.972;7.072;2023-04-01T11:46:23;99334.97;;;11.76;100.00
8140;BME280;4111;50.972;7.072;2023-04-01T11:49:02;99339.59;;;11.76;100.00
8140;BME280;4111;50.972;7.072;2023-04-01T11:52:19;99340.69;;;11.75;100.00
8140;BME280;4111;50.972;7.072;2023-04-01T11:55:16;99346.38;;;11.78;100.00
8140;BME280;4111;50.972;7.072;2023-04-01T12:07:07;99366.47;;;12.06;100.00
8140;BME280;4111;50.972;7.072;2023-04-01T12:15:35;99365.94;;;12.04;100.00
8140;BME280;4111;50.972;7.072;2023-04-01T12:18:28;99369.84;;;11.98;100.00
8140;BME280;4111;50.972;7.072;2023-04-01T12:21:17;99376.91;;;11.99;100.00
8140;BME280;4111;50.972;7.072;2023-04-01T12:35:24;99397.03;;;11.98;100.00
8140;BME280;4111;50.972;7.072;2023-04-01T12:49:27;99396.81;;;12.19;100.00
8140;BME280;4111;50.972;7.072;2023-04-01T12:52:25;99409.31;;;12.20;100.00
8140;BME280;4111;50.972;7.072;2023-04-01T12:55:21;99399.53;;;12.19;99.81
8140;BME280;4111;50.972;7.072;2023-04-01T13:08:52;99416.25;;;12.31;99.42
8140;BME280;4111;50.972;7.072;2023-04-01T13:11:43;99421.75;;;12.26;99.18
8140;BME280;4111;50.972;7.072;2023-04-01T13:19:46;99430.28;;;12.19;99.24
8140;BME280;4111;50.972;7.072;2023-04-01T13:22:44;99434.91;;;12.19;99.68
8140;BME280;4111;50.972;7.072;2023-04-01T13:30:54;99438.72;;;12.18;100.00
8140;BME280;4111;50.972;7.072;2023-04-01T13:33:45;99439.75;;;12.22;100.00
8140;BME280;4111;50.972;7.072;2023-04-01T13:36:30;99442.25;;;12.18;100.00
8140;BME280;4111;50.972;7.072;2023-04-01T13:39:23;99443.63;;;12.16;100.00
8140;BME280;4111;50.972;7.072;2023-04-01T13:42:01;99452.31;;;12.18;100.00
8140;BME280;4111;50.972;7.072;2023-04-01T13:44:36;99438.16;;;12.21;100.00
8140;BME280;4111;50.972;7.072;2023-04-01T13:47:17;99451.69;;;12.26;99.94
8140;BME280;4111;50.972;7.072;2023-04-01T13:55:46;99460.84;;;12.35;100.00
8140;BME280;4111;50.972;7.072;2023-04-01T14:01:06;99467.38;;;12.34;100.00
8140;BME280;4111;50.972;7.072;2023-04-01T14:04:02;99470.81;;;12.21;100.00
8140;BME280;4111;50.972;7.072;2023-04-01T14:06:34;99472.81;;;12.10;100.00
8140;BME280;4111;50.972;7.072;2023-04-01T14:09:13;99468.75;;;12.07;100.00
8140;BME280;4111;50.972;7.072;2023-04-01T14:17:57;99483.56;;;11.96;100.00
8140;BME280;4111;50.972;7.072;2023-04-01T14:26:26;99491.19;;;11.94;100.00
8140;BME280;4111;50.972;7.072;2023-04-01T14:29:07;99490.66;;;11.92;100.00
8140;BME280;4111;50.972;7.072;2023-04-01T14:31:48;99492.81;;;11.95;100.00
8140;BME280;4111;50.972;7.072;2023-04-01T14:37:25;99493.69;;;11.85;100.00
8140;BME280;4111;50.972;7.072;2023-04-01T14:40:20;99506.53;;;11.80;100.00
8140;BME280;4111;50.972;7.072;2023-04-01T14:42:58;99505.66;;;11.84;100.00
8140;BME280;4111;50.972;7.072;2023-04-01T14:48:38;99503.00;;;11.79;100.00
8140;BME280;4111;50.972;7.072;2023-04-01T14:51:33;99512.69;;;11.90;100.00
8140;BME280;4111;50.972;7.072;2023-04-01T14:59:14;99514.88;;;11.88;100.00
8140;BME280;4111;50.972;7.072;2023-04-01T15:01:47;99524.41;;;11.91;100.00
8140;BME280;4111;50.972;7.072;2023-04-01T15:04:44;99515.97;;;11.87;100.00
8140;BME280;4111;50.972;7.072;2023-04-01T15:07:35;99524.69;;;11.89;100.00
8140;BME280;4111;50.972;7.072;2023-04-01T15:15:49;99532.50;;;11.96;100.00
8140;BME280;4111;50.972;7.072;2023-04-01T15:30:13;99545.06;;;11.92;100.00
8140;BME280;4111;50.972;7.072;2023-04-01T16:05:38;99593.22;;;11.86;100.00
8140;BME280;4111;50.972;7.072;2023-04-01T16:14:11;99597.31;;;11.84;100.00
8140;BME280;4111;50.972;7.072;2023-04-01T16:22:22;99610.94;;;11.79;100.00
8140;BME280;4111;50.972;7.072;2023-04-01T16:25:39;99612.56;;;11.80;100.00
8140;BME280;4111;50.972;7.072;2023-04-01T16:28:16;99617.47;;;11.83;100.00
8140;BME280;4111;50.972;7.072;2023-04-01T16:31:15;99622.94;;;11.78;100.00
8140;BME280;4111;50.972;7.072;2023-04-01T16:33:58;99623.53;;;11.69;100.00
8140;BME280;4111;50.972;7.072;2023-04-01T16:36:33;99620.88;;;11.54;100.00
8140;BME280;4111;50.972;7.072;2023-04-01T16:39:29;99627.94;;;11.55;100.00
8140;BME280;4111;50.972;7.072;2023-04-01T16:42:11;99629.03;;;11.54;100.00
8140;BME280;4111;50.972;7.072;2023-04-01T16:47:45;99636.13;;;11.50;100.00
8140;BME280;4111;50.972;7.072;2023-04-01T16:50:30;99647.53;;;11.52;100.00
8140;BME280;4111;50.972;7.072;2023-04-01T16:53:09;99639.94;;;11.49;100.00
8140;BME280;4111;50.972;7.072;2023-04-01T16:55:46;99648.94;;;11.49;100.00
8140;BME280;4111;50.972;7.072;2023-04-01T16:58:21;99659.25;;;11.47;100.00
8140;BME280;4111;50.972;7.072;2023-04-01T17:00:55;99659.00;;;11.44;100.00
8140;BME280;4111;50.972;7.072;2023-04-01T17:03:44;99659.00;;;11.44;100.00
8140;BME280;4111;50.972;7.072;2023-04-01T17:06:30;99657.94;;;11.40;100.00
8140;BME280;4111;50.972;7.072;2023-04-01T17:09:31;99661.44;;;11.45;100.00
8140;BME280;4111;50.972;7.072;2023-04-01T17:17:38;99683.19;;;11.45;100.00
8140;BME280;4111;50.972;7.072;2023-04-01T17:31:37;99699.81;;;11.28;100.00
8140;BME280;4111;50.972;7.072;2023-04-01T17:40:17;99713.97;;;11.20;100.00
8140;BME280;4111;50.972;7.072;2023-04-01T17:45:49;99725.34;;;11.27;100.00
8140;BME280;4111;50.972;7.072;2023-04-01T17:48:38;99725.63;;;11.31;100.00
8140;BME280;4111;50.972;7.072;2023-04-01T17:51:12;99723.19;;;11.29;100.00
8140;BME280;4111;50.972;7.072;2023-04-01T17:54:02;99728.06;;;11.27;100.00
8140;BME280;4111;50.972;7.072;2023-04-01T17:56:45;99737.31;;;11.21;100.00
8140;BME280;4111;50.972;7.072;2023-04-01T18:02:11;99748.75;;;11.18;100.00
8140;BME280;4111;50.972;7.072;2023-04-01T18:13:34;99768.06;;;11.06;100.00
8140;BME280;4111;50.972;7.072;2023-04-01T18:16:37;99773.22;;;11.08;100.00
8140;BME280;4111;50.972;7.072;2023-04-01T18:22:19;99778.13;;;11.06;100.00
8140;BME280;4111;50.972;7.072;2023-04-01T18:24:58;99785.72;;;11.04;100.00
8140;BME280;4111;50.972;7.072;2023-04-01T18:27:37;99782.72;;;11.05;100.00
8140;BME280;4111;50.972;7.072;2023-04-01T18:30:37;99794.13;;;11.07;100.00
8140;BME280;4111;50.972;7.072;2023-04-01T18:41:47;99806.91;;;10.91;100.00
8140;BME280;4111;50.972;7.072;2023-04-01T18:52:24;99823.50;;;10.90;100.00
8140;BME280;4111;50.972;7.072;2023-04-01T18:57:39;99830.53;;;10.91;100.00
8140;BME280;4111;50.972;7.072;2023-04-01T19:00:32;99831.88;;;10.83;100.00
8140;BME280;4111;50.972;7.072;2023-04-01T19:03:15;99831.88;;;10.83;100.00
8140;BME280;4111;50.972;7.072;2023-04-01T19:05:47;99846.81;;;10.86;100.00
8140;BME280;4111;50.972;7.072;2023-04-01T19:08:33;99842.50;;;10.90;100.00
8140;BME280;4111;50.972;7.072;2023-04-01T19:11:23;99854.44;;;10.89;100.00
8140;BME280;4111;50.972;7.072;2023-04-01T19:14:11;99848.72;;;10.85;100.00
8140;BME280;4111;50.972;7.072;2023-04-01T19:16:49;99854.72;;;10.82;100.00
8140;BME280;4111;50.972;7.072;2023-04-01T19:25:17;99860.66;;;10.79;100.00
8140;BME280;4111;50.972;7.072;2023-04-01T19:27:50;99861.47;;;10.80;100.00
8140;BME280;4111;50.972;7.072;2023-04-01T19:30:34;99860.94;;;10.83;100.00
8140;BME280;4111;50.972;7.072;2023-04-01T19:35:51;99868.53;;;10.86;100.00
8140;BME280;4111;50.972;7.072;2023-04-01T19:38:28;99876.69;;;10.91;100.00
8140;BME280;4111;50.972;7.072;2023-04-01T19:41:39;99870.47;;;10.90;100.00
8140;BME280;4111;50.972;7.072;2023-04-01T19:44:00;99869.38;;;10.91;100.00
8140;BME280;4111;50.972;7.072;2023-04-01T19:47:19;99878.06;;;10.78;100.00
8140;BME280;4111;50.972;7.072;2023-04-01T19:50:20;99882.38;;;10.79;100.00
8140;BME280;4111;50.972;7.072;2023-04-01T19:52:50;99882.69;;;10.83;100.00
8140;BME280;4111;50.972;7.072;2023-04-01T19:55:47;99883.75;;;10.87;100.00
8140;BME280;4111;50.972;7.072;2023-04-01T20:01:03;99885.66;;;10.81;100.00
8140;BME280;4111;50.972;7.072;2023-04-01T20:03:38;99887.56;;;10.81;100.00
8140;BME280;4111;50.972;7.072;2023-04-01T20:09:36;99899.19;;;10.76;100.00
8140;BME280;4111;50.972;7.072;2023-04-01T20:11:45;99903.53;;;10.72;100.00
8140;BME280;4111;50.972;7.072;2023-04-01T20:14:35;99912.22;;;10.74;100.00
8140;BME280;4111;50.972;7.072;2023-04-01T20:25:05;99922.84;;;10.70;100.00
8140;BME280;4111;50.972;7.072;2023-04-01T20:27:35;99930.69;;;10.72;100.00
8140;BME280;4111;50.972;7.072;2023-04-01T20:41:19;99945.34;;;10.61;100.00
8140;BME280;4111;50.972;7.072;2023-04-01T20:52:21;99953.47;;;10.61;100.00
8140;BME280;4111;50.972;7.072;2023-04-01T20:55:07;99961.59;;;10.56;100.00
8140;BME280;4111;50.972;7.072;2023-04-01T21:00:40;99962.94;;;10.53;100.00
8140;BME280;4111;50.972;7.072;2023-04-01T21:06:09;99964.31;;;10.56;100.00
8140;BME280;4111;50.972;7.072;2023-04-01T21:08:53;99966.75;;;10.62;100.00
8140;BME280;4111;50.972;7.072;2023-04-01T21:16:58;99968.97;;;10.65;100.00
8140;BME280;4111;50.972;7.072;2023-04-01T21:28:13;99984.97;;;10.62;100.00
8140;BME280;4111;50.972;7.072;2023-04-01T21:31:08;99988.78;;;10.61;100.00
8140;BME280;4111;50.972;7.072;2023-04-01T21:34:25;99987.94;;;10.60;100.00
8140;BME280;4111;50.972;7.072;2023-04-01T21:42:46;99995.31;;;10.70;100.00
8140;BME280;4111;50.972;7.072;2023-04-01T21:45:24;99998.03;;;10.65;100.00
8140;BME280;4111;50.972;7.072;2023-04-01T21:50:45;100001.25;;;10.62;100.00
8140;BME280;4111;50.972;7.072;2023-04-01T21:53:55;100011.00;;;10.58;100.00
8140;BME280;4111;50.972;7.072;2023-04-01T22:07:46;100028.72;;;10.70;100.00